Arrowhead, Minnesota
Current Conditions -  °F | °C
As of 11:36 PM on Sunday 21 Dec 2014 (Local Time) from KCOQ Reporting Station
Haze Haze  
Wind Chill: 34°   Ceiling: 200
Heat Index: 34°   Visibility: 1.5mi
Dew Point: 34°   Wind: 3mph
Humidity: 100%   Direction: 150°SSE
Pressure: 29.7"   Gusts: NA
Location:  46.8211°N, 92.6871°W
Report Text: KCOQ 220536Z AUTO 15003KT 1 1/2SM BR OVC002 01/01 A2970 RMK AO2
Loading
Personal Weather Stations






























Interactive Weather Map New forecast layout! Learn more

10-Day Weather Forecast

Advertisements
Track Severe Weather on mobile